UMMS

Minsk International Airport

Minsk, Belarus
TAF UMMS 181711Z 1818/1918 01005G10MPS 9999 BKN030 TEMPO 1818/1821 VRB14MPS 1200 TSRA SQ BKN003 BKN020CB TEMPO 1821/1906 36006MPS 1200 SHRA BR BKN003 SCT020CB TEMPO 1906/1918 VRB14MPS 1200 TSRA SQ BKN004 SCT020CB
Issued Valid From Valid To
Jul-18 @ 17:11 UTC
(5 hours ago)
Jul-18 @ 18:00 UTC
(4 hours ago)
Jul-19 @ 18:00 UTC
(in 20 hours)
Jul-18 @ 18:00 to Jul-19 @ 18:00
TAF UMMS 181711Z 1818/1918 01005G10MPS 9999 BKN030
Wind Visibility Clouds
10° at 10 knots
 Gusting to 19 knots
10,000+ meters
  • Broken at 3,000' AGL
Expired Click to View Jul-18 @ 18:00 to Jul-18 @ 21:00
TEMPO 1818/1821 VRB14MPS 1200 TSRA SQ BKN003 BKN020CB
Wind Visibility Clouds Conditions
Variable at 27 knots 1,207 meters
  • Broken at 300' AGL
  • Broken at 2,000' AGL
  • Thunderstorm
  • Rain
  • Squalls
Temporary Jul-18 @ 21:00 to Jul-19 @ 06:00
TEMPO 1821/1906 36006MPS 1200 SHRA BR BKN003 SCT020CB
Wind Visibility Clouds Conditions
360° at 12 knots 1,207 meters
  • Broken at 300' AGL
  • Scattered at 2,000' AGL
  • Rain
  • Mist
Temporary Jul-19 @ 06:00 to Jul-19 @ 18:00
TEMPO 1906/1918 VRB14MPS 1200 TSRA SQ BKN004 SCT020CB
Wind Visibility Clouds Conditions
Variable at 27 knots 1,207 meters
  • Broken at 400' AGL
  • Scattered at 2,000' AGL
  • Thunderstorm
  • Rain
  • Squalls
TAF UMMS 181711Z 1818/1918 01005G10MPS 9999 BKN030 TEMPO 1818/1821 VRB14MPS 1200 TSRA SQ BKN003 BKN020CB TEMPO 1821/1906 36006MPS 1200 SHRA BR BKN003 SCT020CB TEMPO 1906/1918 VRB14MPS 1200 TSRA SQ BKN004 SCT020CB
Issued Jul-18 @ 17:11 UTC
(5 hours ago)
Valid From Jul-18 @ 18:00 UTC
(4 hours ago)
Valid To Jul-19 @ 18:00 UTC
(in 20 hours)
Jul-18 @ 18:00 - Jul-19 @ 18:00
Wind Visibility
10° at 10 knots
 Gusting to 19 knots
10,000+ meters
Clouds
  • Broken at 3,000' AGL
Jul-18 @ 18:00 - Jul-18 @ 21:00
Wind Visibility
Variable at 27 knots 1,207 meters
Clouds
  • Broken at 300' AGL
  • Broken at 2,000' AGL
Conditions
  • Thunderstorm
  • Rain
  • Squalls
Temporary Jul-18 @ 21:00 - Jul-19 @ 06:00
Wind Visibility
360° at 12 knots 1,207 meters
Clouds
  • Broken at 300' AGL
  • Scattered at 2,000' AGL
Conditions
  • Rain
  • Mist
Temporary Jul-19 @ 06:00 - Jul-19 @ 18:00
Wind Visibility
Variable at 27 knots 1,207 meters
Clouds
  • Broken at 400' AGL
  • Scattered at 2,000' AGL
Conditions
  • Thunderstorm
  • Rain
  • Squalls